sensor_id;sensor_type;location;lat;lon;timestamp;temperature;humidity
58413;DHT22;44209;52.952;6.790;2023-03-14T00:00:22;9.30;99.90
58413;DHT22;44209;52.952;6.790;2023-03-14T00:02:52;9.30;99.90
58413;DHT22;44209;52.952;6.790;2023-03-14T00:05:18;9.30;99.90
58413;DHT22;44209;52.952;6.790;2023-03-14T00:07:44;9.40;99.90
58413;DHT22;44209;52.952;6.790;2023-03-14T00:10:13;9.40;99.90
58413;DHT22;44209;52.952;6.790;2023-03-14T00:12:40;9.50;99.90
58413;DHT22;44209;52.952;6.790;2023-03-14T00:15:06;9.50;99.90
58413;DHT22;44209;52.952;6.790;2023-03-14T00:17:34;9.50;99.90
58413;DHT22;44209;52.952;6.790;2023-03-14T00:20:00;9.60;99.90
58413;DHT22;44209;52.952;6.790;2023-03-14T00:22:36;9.70;99.90
58413;DHT22;44209;52.952;6.790;2023-03-14T00:25:02;9.70;99.90
58413;DHT22;44209;52.952;6.790;2023-03-14T00:27:28;9.70;99.90
58413;DHT22;44209;52.952;6.790;2023-03-14T00:29:54;9.80;99.90
58413;DHT22;44209;52.952;6.790;2023-03-14T00:32:20;9.80;99.90
58413;DHT22;44209;52.952;6.790;2023-03-14T00:34:45;9.80;99.90
58413;DHT22;44209;52.952;6.790;2023-03-14T00:37:13;9.80;99.90
58413;DHT22;44209;52.952;6.790;2023-03-14T00:39:39;9.80;99.90
58413;DHT22;44209;52.952;6.790;2023-03-14T00:42:05;9.70;99.90
58413;DHT22;44209;52.952;6.790;2023-03-14T00:44:30;9.80;99.90
58413;DHT22;44209;52.952;6.790;2023-03-14T00:46:57;9.70;99.90
58413;DHT22;44209;52.952;6.790;2023-03-14T00:49:23;9.70;99.90
58413;DHT22;44209;52.952;6.790;2023-03-14T00:51:49;9.70;99.90
58413;DHT22;44209;52.952;6.790;2023-03-14T00:54:15;9.70;99.90
58413;DHT22;44209;52.952;6.790;2023-03-14T00:56:40;9.70;99.90
58413;DHT22;44209;52.952;6.790;2023-03-14T00:59:06;9.70;99.90
58413;DHT22;44209;52.952;6.790;2023-03-14T01:01:32;9.80;99.90
58413;DHT22;44209;52.952;6.790;2023-03-14T01:03:57;9.80;99.90
58413;DHT22;44209;52.952;6.790;2023-03-14T01:06:28;9.90;99.90
58413;DHT22;44209;52.952;6.790;2023-03-14T01:08:56;9.90;99.90
58413;DHT22;44209;52.952;6.790;2023-03-14T01:11:25;9.90;99.90
58413;DHT22;44209;52.952;6.790;2023-03-14T01:13:51;10.00;99.90
58413;DHT22;44209;52.952;6.790;2023-03-14T01:16:18;10.00;99.90
58413;DHT22;44209;52.952;6.790;2023-03-14T01:18:45;10.00;99.90
58413;DHT22;44209;52.952;6.790;2023-03-14T01:21:26;10.10;99.90
58413;DHT22;44209;52.952;6.790;2023-03-14T01:23:53;10.10;99.90
58413;DHT22;44209;52.952;6.790;2023-03-14T01:26:21;10.10;99.90
58413;DHT22;44209;52.952;6.790;2023-03-14T01:28:48;10.10;99.90
58413;DHT22;44209;52.952;6.790;2023-03-14T01:31:14;10.10;99.90
58413;DHT22;44209;52.952;6.790;2023-03-14T01:33:40;10.10;99.90
58413;DHT22;44209;52.952;6.790;2023-03-14T01:36:07;10.10;99.90
58413;DHT22;44209;52.952;6.790;2023-03-14T01:38:34;10.10;99.90
58413;DHT22;44209;52.952;6.790;2023-03-14T01:41:01;10.10;99.90
58413;DHT22;44209;52.952;6.790;2023-03-14T01:43:27;10.10;99.90
58413;DHT22;44209;52.952;6.790;2023-03-14T01:51:09;10.20;99.90
58413;DHT22;44209;52.952;6.790;2023-03-14T01:53:37;10.30;99.90
58413;DHT22;44209;52.952;6.790;2023-03-14T01:56:04;10.30;99.90
58413;DHT22;44209;52.952;6.790;2023-03-14T01:58:32;10.30;99.90
58413;DHT22;44209;52.952;6.790;2023-03-14T02:01:02;10.30;99.90
58413;DHT22;44209;52.952;6.790;2023-03-14T02:03:29;10.40;99.90
58413;DHT22;44209;52.952;6.790;2023-03-14T02:05:59;10.30;99.90
58413;DHT22;44209;52.952;6.790;2023-03-14T02:08:30;10.30;99.90
58413;DHT22;44209;52.952;6.790;2023-03-14T02:10:56;10.30;99.90
58413;DHT22;44209;52.952;6.790;2023-03-14T02:13:22;10.30;99.90
58413;DHT22;44209;52.952;6.790;2023-03-14T02:15:49;10.30;99.90
58413;DHT22;44209;52.952;6.790;2023-03-14T02:18:16;10.30;99.90
58413;DHT22;44209;52.952;6.790;2023-03-14T02:20:47;10.30;99.90
58413;DHT22;44209;52.952;6.790;2023-03-14T02:23:16;10.30;99.90
58413;DHT22;44209;52.952;6.790;2023-03-14T02:26:01;10.30;99.90
58413;DHT22;44209;52.952;6.790;2023-03-14T02:28:28;10.30;99.90
58413;DHT22;44209;52.952;6.790;2023-03-14T02:30:54;10.20;99.90
58413;DHT22;44209;52.952;6.790;2023-03-14T02:33:20;10.20;99.90
58413;DHT22;44209;52.952;6.790;2023-03-14T02:35:58;10.20;99.90
58413;DHT22;44209;52.952;6.790;2023-03-14T02:41:07;10.10;99.90
58413;DHT22;44209;52.952;6.790;2023-03-14T02:43:33;10.10;99.90
58413;DHT22;44209;52.952;6.790;2023-03-14T02:46:00;10.00;99.90
58413;DHT22;44209;52.952;6.790;2023-03-14T02:48:51;10.00;99.90
58413;DHT22;44209;52.952;6.790;2023-03-14T02:51:18;10.00;99.90
58413;DHT22;44209;52.952;6.790;2023-03-14T02:53:43;10.00;99.90
58413;DHT22;44209;52.952;6.790;2023-03-14T02:56:10;10.00;99.90
58413;DHT22;44209;52.952;6.790;2023-03-14T02:58:36;9.90;99.90
58413;DHT22;44209;52.952;6.790;2023-03-14T03:01:03;9.90;99.90
58413;DHT22;44209;52.952;6.790;2023-03-14T03:03:29;9.90;99.90
58413;DHT22;44209;52.952;6.790;2023-03-14T03:05:56;9.90;99.90
58413;DHT22;44209;52.952;6.790;2023-03-14T03:08:23;10.00;99.90
58413;DHT22;44209;52.952;6.790;2023-03-14T03:10:49;10.00;99.90
58413;DHT22;44209;52.952;6.790;2023-03-14T03:13:15;10.00;99.90
58413;DHT22;44209;52.952;6.790;2023-03-14T03:15:42;9.90;99.90
58413;DHT22;44209;52.952;6.790;2023-03-14T03:18:08;9.90;99.90
58413;DHT22;44209;52.952;6.790;2023-03-14T03:20:34;9.90;99.90
58413;DHT22;44209;52.952;6.790;2023-03-14T03:23:00;9.90;99.90
58413;DHT22;44209;52.952;6.790;2023-03-14T03:25:26;9.90;99.90
58413;DHT22;44209;52.952;6.790;2023-03-14T03:27:51;9.90;99.90
58413;DHT22;44209;52.952;6.790;2023-03-14T03:30:18;9.90;99.90
58413;DHT22;44209;52.952;6.790;2023-03-14T03:32:43;9.90;99.90
58413;DHT22;44209;52.952;6.790;2023-03-14T03:35:09;9.80;99.90
58413;DHT22;44209;52.952;6.790;2023-03-14T03:37:36;9.80;99.90
58413;DHT22;44209;52.952;6.790;2023-03-14T03:40:03;9.80;99.90
58413;DHT22;44209;52.952;6.790;2023-03-14T03:42:33;9.70;99.90
58413;DHT22;44209;52.952;6.790;2023-03-14T03:45:00;9.70;99.90
58413;DHT22;44209;52.952;6.790;2023-03-14T03:47:26;9.70;99.90
58413;DHT22;44209;52.952;6.790;2023-03-14T03:49:51;9.70;99.90
58413;DHT22;44209;52.952;6.790;2023-03-14T03:52:17;9.70;99.90
58413;DHT22;44209;52.952;6.790;2023-03-14T03:54:43;9.70;99.90
58413;DHT22;44209;52.952;6.790;2023-03-14T03:57:09;9.70;99.90
58413;DHT22;44209;52.952;6.790;2023-03-14T03:59:35;9.70;99.90
58413;DHT22;44209;52.952;6.790;2023-03-14T04:02:01;9.60;99.90
58413;DHT22;44209;52.952;6.790;2023-03-14T04:04:26;9.60;99.90
58413;DHT22;44209;52.952;6.790;2023-03-14T04:06:52;9.60;99.90
58413;DHT22;44209;52.952;6.790;2023-03-14T04:09:18;9.60;99.90
58413;DHT22;44209;52.952;6.790;2023-03-14T04:11:43;9.60;99.90
58413;DHT22;44209;52.952;6.790;2023-03-14T04:14:09;9.60;99.90
58413;DHT22;44209;52.952;6.790;2023-03-14T04:16:35;9.60;99.90
58413;DHT22;44209;52.952;6.790;2023-03-14T04:19:02;9.60;99.90
58413;DHT22;44209;52.952;6.790;2023-03-14T04:21:27;9.60;99.90
58413;DHT22;44209;52.952;6.790;2023-03-14T04:23:53;9.50;99.90
58413;DHT22;44209;52.952;6.790;2023-03-14T04:26:19;9.40;99.90
58413;DHT22;44209;52.952;6.790;2023-03-14T04:28:45;9.40;99.90
58413;DHT22;44209;52.952;6.790;2023-03-14T04:31:19;9.40;99.90
58413;DHT22;44209;52.952;6.790;2023-03-14T04:33:45;9.30;99.90
58413;DHT22;44209;52.952;6.790;2023-03-14T04:36:12;9.30;99.90
58413;DHT22;44209;52.952;6.790;2023-03-14T04:38:38;9.30;99.90
58413;DHT22;44209;52.952;6.790;2023-03-14T04:41:04;9.30;99.90
58413;DHT22;44209;52.952;6.790;2023-03-14T04:43:29;9.30;99.90
58413;DHT22;44209;52.952;6.790;2023-03-14T04:45:56;9.30;99.90
58413;DHT22;44209;52.952;6.790;2023-03-14T04:48:23;9.30;99.90
58413;DHT22;44209;52.952;6.790;2023-03-14T04:50:49;9.30;99.90
58413;DHT22;44209;52.952;6.790;2023-03-14T04:53:16;9.30;99.90
58413;DHT22;44209;52.952;6.790;2023-03-14T04:55:42;9.30;99.90
58413;DHT22;44209;52.952;6.790;2023-03-14T04:58:08;9.30;99.90
58413;DHT22;44209;52.952;6.790;2023-03-14T05:00:33;9.30;99.90
58413;DHT22;44209;52.952;6.790;2023-03-14T05:02:59;9.20;99.90
58413;DHT22;44209;52.952;6.790;2023-03-14T05:05:25;9.20;99.90
58413;DHT22;44209;52.952;6.790;2023-03-14T05:07:51;9.20;99.90
58413;DHT22;44209;52.952;6.790;2023-03-14T05:10:17;9.20;99.90
58413;DHT22;44209;52.952;6.790;2023-03-14T05:12:42;9.20;99.90
58413;DHT22;44209;52.952;6.790;2023-03-14T05:15:08;9.20;99.90
58413;DHT22;44209;52.952;6.790;2023-03-14T05:17:34;9.10;99.90
58413;DHT22;44209;52.952;6.790;2023-03-14T05:20:00;9.10;99.90
58413;DHT22;44209;52.952;6.790;2023-03-14T05:22:26;9.10;99.90
58413;DHT22;44209;52.952;6.790;2023-03-14T05:24:52;9.10;99.90
58413;DHT22;44209;52.952;6.790;2023-03-14T05:27:22;9.10;99.90
58413;DHT22;44209;52.952;6.790;2023-03-14T05:29:48;9.10;99.90
58413;DHT22;44209;52.952;6.790;2023-03-14T05:32:13;9.20;99.90
58413;DHT22;44209;52.952;6.790;2023-03-14T05:34:39;9.10;99.90
58413;DHT22;44209;52.952;6.790;2023-03-14T05:37:05;9.10;99.90
58413;DHT22;44209;52.952;6.790;2023-03-14T05:39:30;9.10;99.90
58413;DHT22;44209;52.952;6.790;2023-03-14T05:41:56;9.10;99.90
58413;DHT22;44209;52.952;6.790;2023-03-14T05:44:22;9.10;99.90
58413;DHT22;44209;52.952;6.790;2023-03-14T05:46:48;9.10;99.90
58413;DHT22;44209;52.952;6.790;2023-03-14T05:49:14;9.10;99.90
58413;DHT22;44209;52.952;6.790;2023-03-14T05:51:39;9.10;99.90
58413;DHT22;44209;52.952;6.790;2023-03-14T05:54:05;9.10;99.90
58413;DHT22;44209;52.952;6.790;2023-03-14T05:56:31;9.00;99.90
58413;DHT22;44209;52.952;6.790;2023-03-14T05:58:57;9.00;99.90
58413;DHT22;44209;52.952;6.790;2023-03-14T06:01:22;9.00;99.90
58413;DHT22;44209;52.952;6.790;2023-03-14T06:03:48;9.00;99.90
58413;DHT22;44209;52.952;6.790;2023-03-14T06:06:14;9.00;99.90
58413;DHT22;44209;52.952;6.790;2023-03-14T06:08:39;9.00;99.90
58413;DHT22;44209;52.952;6.790;2023-03-14T06:11:05;9.00;99.90
58413;DHT22;44209;52.952;6.790;2023-03-14T06:13:31;8.90;99.90
58413;DHT22;44209;52.952;6.790;2023-03-14T06:15:57;8.90;99.90
58413;DHT22;44209;52.952;6.790;2023-03-14T06:18:22;9.00;99.90
58413;DHT22;44209;52.952;6.790;2023-03-14T06:20:48;9.00;99.90
58413;DHT22;44209;52.952;6.790;2023-03-14T06:23:14;8.90;99.90
58413;DHT22;44209;52.952;6.790;2023-03-14T06:25:39;8.90;99.90
58413;DHT22;44209;52.952;6.790;2023-03-14T06:28:05;8.90;99.90
58413;DHT22;44209;52.952;6.790;2023-03-14T06:30:31;9.00;99.90
58413;DHT22;44209;52.952;6.790;2023-03-14T06:32:56;9.00;99.90
58413;DHT22;44209;52.952;6.790;2023-03-14T06:35:22;9.00;99.90
58413;DHT22;44209;52.952;6.790;2023-03-14T06:37:48;9.00;99.90
58413;DHT22;44209;52.952;6.790;2023-03-14T06:40:14;9.00;99.90
58413;DHT22;44209;52.952;6.790;2023-03-14T06:42:46;9.00;99.90
58413;DHT22;44209;52.952;6.790;2023-03-14T06:45:11;9.10;99.90
58413;DHT22;44209;52.952;6.790;2023-03-14T06:47:37;9.10;99.90
58413;DHT22;44209;52.952;6.790;2023-03-14T06:50:07;9.10;99.90
58413;DHT22;44209;52.952;6.790;2023-03-14T06:52:33;9.10;99.90
58413;DHT22;44209;52.952;6.790;2023-03-14T06:54:58;9.10;99.90
58413;DHT22;44209;52.952;6.790;2023-03-14T06:57:24;9.10;99.90
58413;DHT22;44209;52.952;6.790;2023-03-14T06:59:50;9.10;99.90
58413;DHT22;44209;52.952;6.790;2023-03-14T07:02:16;9.10;99.90
58413;DHT22;44209;52.952;6.790;2023-03-14T07:04:41;9.10;99.90
58413;DHT22;44209;52.952;6.790;2023-03-14T07:07:07;9.10;99.90
58413;DHT22;44209;52.952;6.790;2023-03-14T07:09:33;9.10;99.90
58413;DHT22;44209;52.952;6.790;2023-03-14T07:11:59;9.10;99.90
58413;DHT22;44209;52.952;6.790;2023-03-14T07:14:26;9.10;99.90
58413;DHT22;44209;52.952;6.790;2023-03-14T07:16:51;9.10;99.90
58413;DHT22;44209;52.952;6.790;2023-03-14T07:19:17;9.10;99.90
58413;DHT22;44209;52.952;6.790;2023-03-14T07:21:43;9.10;99.90
58413;DHT22;44209;52.952;6.790;2023-03-14T07:24:09;9.10;99.90
58413;DHT22;44209;52.952;6.790;2023-03-14T07:26:35;9.10;99.90
58413;DHT22;44209;52.952;6.790;2023-03-14T07:29:01;8.60;99.90
58413;DHT22;44209;52.952;6.790;2023-03-14T07:31:29;8.40;99.90
58413;DHT22;44209;52.952;6.790;2023-03-14T07:33:55;8.10;99.90
58413;DHT22;44209;52.952;6.790;2023-03-14T07:36:21;7.70;99.90
58413;DHT22;44209;52.952;6.790;2023-03-14T07:38:46;7.40;99.90
58413;DHT22;44209;52.952;6.790;2023-03-14T07:41:13;7.20;99.90
58413;DHT22;44209;52.952;6.790;2023-03-14T07:43:39;7.00;99.90
58413;DHT22;44209;52.952;6.790;2023-03-14T07:46:05;6.80;99.90
58413;DHT22;44209;52.952;6.790;2023-03-14T07:48:30;6.60;99.90
58413;DHT22;44209;52.952;6.790;2023-03-14T07:50:56;6.40;99.90
58413;DHT22;44209;52.952;6.790;2023-03-14T07:53:22;6.00;99.90
58413;DHT22;44209;52.952;6.790;2023-03-14T07:55:53;5.80;99.90
58413;DHT22;44209;52.952;6.790;2023-03-14T07:58:20;5.60;99.90
58413;DHT22;44209;52.952;6.790;2023-03-14T08:00:48;5.40;99.90
58413;DHT22;44209;52.952;6.790;2023-03-14T08:03:14;5.20;99.90
58413;DHT22;44209;52.952;6.790;2023-03-14T08:05:39;5.10;99.90
58413;DHT22;44209;52.952;6.790;2023-03-14T08:08:06;4.90;99.90
58413;DHT22;44209;52.952;6.790;2023-03-14T08:10:32;4.80;99.90
58413;DHT22;44209;52.952;6.790;2023-03-14T08:12:59;4.70;99.90
58413;DHT22;44209;52.952;6.790;2023-03-14T08:15:25;4.60;99.90
58413;DHT22;44209;52.952;6.790;2023-03-14T08:17:52;4.60;99.90
58413;DHT22;44209;52.952;6.790;2023-03-14T08:20:20;4.50;99.90
58413;DHT22;44209;52.952;6.790;2023-03-14T08:22:46;4.40;99.90
58413;DHT22;44209;52.952;6.790;2023-03-14T08:25:12;4.40;99.90
58413;DHT22;44209;52.952;6.790;2023-03-14T08:27:38;4.40;99.90
58413;DHT22;44209;52.952;6.790;2023-03-14T08:30:12;4.40;99.90
58413;DHT22;44209;52.952;6.790;2023-03-14T08:32:38;4.50;99.90
58413;DHT22;44209;52.952;6.790;2023-03-14T08:35:05;4.50;99.90
58413;DHT22;44209;52.952;6.790;2023-03-14T08:37:32;4.50;99.90
58413;DHT22;44209;52.952;6.790;2023-03-14T08:39:57;4.50;99.90
58413;DHT22;44209;52.952;6.790;2023-03-14T08:42:23;4.50;99.90
58413;DHT22;44209;52.952;6.790;2023-03-14T08:44:51;4.50;99.90
58413;DHT22;44209;52.952;6.790;2023-03-14T08:47:17;4.60;99.90
58413;DHT22;44209;52.952;6.790;2023-03-14T08:49:42;4.60;99.90
58413;DHT22;44209;52.952;6.790;2023-03-14T08:52:09;4.60;99.90
58413;DHT22;44209;52.952;6.790;2023-03-14T08:54:35;4.60;99.90
58413;DHT22;44209;52.952;6.790;2023-03-14T08:57:00;4.70;99.90
58413;DHT22;44209;52.952;6.790;2023-03-14T08:59:26;4.80;99.90
58413;DHT22;44209;52.952;6.790;2023-03-14T09:01:52;4.80;99.90
58413;DHT22;44209;52.952;6.790;2023-03-14T09:04:19;4.80;99.90
58413;DHT22;44209;52.952;6.790;2023-03-14T09:06:45;4.80;99.90
58413;DHT22;44209;52.952;6.790;2023-03-14T09:09:11;4.90;99.90
58413;DHT22;44209;52.952;6.790;2023-03-14T09:11:36;4.90;99.90
58413;DHT22;44209;52.952;6.790;2023-03-14T09:14:02;5.00;99.90
58413;DHT22;44209;52.952;6.790;2023-03-14T09:16:28;5.10;99.90
58413;DHT22;44209;52.952;6.790;2023-03-14T09:18:53;5.20;99.90
58413;DHT22;44209;52.952;6.790;2023-03-14T09:21:21;5.20;99.90
58413;DHT22;44209;52.952;6.790;2023-03-14T09:23:47;5.30;99.90
58413;DHT22;44209;52.952;6.790;2023-03-14T09:26:13;5.40;99.90
58413;DHT22;44209;52.952;6.790;2023-03-14T09:28:38;5.40;99.90
58413;DHT22;44209;52.952;6.790;2023-03-14T09:31:08;5.50;99.90
58413;DHT22;44209;52.952;6.790;2023-03-14T09:33:35;5.60;99.90
58413;DHT22;44209;52.952;6.790;2023-03-14T09:36:01;5.60;99.90
58413;DHT22;44209;52.952;6.790;2023-03-14T09:38:27;5.80;99.90
58413;DHT22;44209;52.952;6.790;2023-03-14T09:40:54;5.90;99.90
58413;DHT22;44209;52.952;6.790;2023-03-14T09:43:21;6.10;99.90
58413;DHT22;44209;52.952;6.790;2023-03-14T09:45:48;6.20;99.90
58413;DHT22;44209;52.952;6.790;2023-03-14T09:48:17;6.30;99.90
58413;DHT22;44209;52.952;6.790;2023-03-14T09:50:49;6.40;99.90
58413;DHT22;44209;52.952;6.790;2023-03-14T09:53:21;6.50;99.90
58413;DHT22;44209;52.952;6.790;2023-03-14T09:55:50;6.40;99.90
58413;DHT22;44209;52.952;6.790;2023-03-14T09:58:19;6.40;99.90
58413;DHT22;44209;52.952;6.790;2023-03-14T10:00:45;6.30;99.90
58413;DHT22;44209;52.952;6.790;2023-03-14T10:05:37;6.20;99.90
58413;DHT22;44209;52.952;6.790;2023-03-14T10:08:03;6.20;99.90
58413;DHT22;44209;52.952;6.790;2023-03-14T10:10:31;6.20;99.90
58413;DHT22;44209;52.952;6.790;2023-03-14T10:13:05;6.20;99.90
58413;DHT22;44209;52.952;6.790;2023-03-14T10:15:34;6.20;99.90
58413;DHT22;44209;52.952;6.790;2023-03-14T10:18:01;6.20;99.90
58413;DHT22;44209;52.952;6.790;2023-03-14T10:20:34;6.10;99.90
58413;DHT22;44209;52.952;6.790;2023-03-14T10:25:45;6.00;99.90
58413;DHT22;44209;52.952;6.790;2023-03-14T10:28:32;6.10;99.90
58413;DHT22;44209;52.952;6.790;2023-03-14T10:30:59;6.20;99.90
58413;DHT22;44209;52.952;6.790;2023-03-14T10:33:34;6.20;99.90
58413;DHT22;44209;52.952;6.790;2023-03-14T10:36:21;6.30;99.90
58413;DHT22;44209;52.952;6.790;2023-03-14T10:38:48;6.30;99.90
58413;DHT22;44209;52.952;6.790;2023-03-14T10:41:30;6.30;99.90
58413;DHT22;44209;52.952;6.790;2023-03-14T10:44:00;6.30;99.90
58413;DHT22;44209;52.952;6.790;2023-03-14T10:46:30;6.30;99.90
58413;DHT22;44209;52.952;6.790;2023-03-14T10:48:56;6.30;99.90
58413;DHT22;44209;52.952;6.790;2023-03-14T10:51:29;6.40;99.90
58413;DHT22;44209;52.952;6.790;2023-03-14T10:54:09;6.40;99.90
58413;DHT22;44209;52.952;6.790;2023-03-14T10:56:38;6.40;99.90
58413;DHT22;44209;52.952;6.790;2023-03-14T10:59:07;6.50;99.90
58413;DHT22;44209;52.952;6.790;2023-03-14T11:07:27;6.60;99.90
58413;DHT22;44209;52.952;6.790;2023-03-14T11:10:03;6.80;99.90
58413;DHT22;44209;52.952;6.790;2023-03-14T11:13:15;6.80;99.90
58413;DHT22;44209;52.952;6.790;2023-03-14T11:18:36;6.70;99.90
58413;DHT22;44209;52.952;6.790;2023-03-14T11:21:11;6.80;99.90
58413;DHT22;44209;52.952;6.790;2023-03-14T11:26:34;6.90;99.90
58413;DHT22;44209;52.952;6.790;2023-03-14T11:29:40;6.90;99.90
58413;DHT22;44209;52.952;6.790;2023-03-14T11:32:17;6.80;99.90
58413;DHT22;44209;52.952;6.790;2023-03-14T11:34:52;6.80;99.90
58413;DHT22;44209;52.952;6.790;2023-03-14T11:37:25;6.70;99.90
58413;DHT22;44209;52.952;6.790;2023-03-14T11:40:13;6.70;99.90
58413;DHT22;44209;52.952;6.790;2023-03-14T11:42:42;6.90;99.90
58413;DHT22;44209;52.952;6.790;2023-03-14T11:45:21;7.20;99.90
58413;DHT22;44209;52.952;6.790;2023-03-14T11:48:07;7.30;99.90
58413;DHT22;44209;52.952;6.790;2023-03-14T11:50:36;7.50;99.90
58413;DHT22;44209;52.952;6.790;2023-03-14T11:53:16;7.70;99.90
58413;DHT22;44209;52.952;6.790;2023-03-14T11:55:43;7.60;99.90
58413;DHT22;44209;52.952;6.790;2023-03-14T11:58:33;7.40;99.90
58413;DHT22;44209;52.952;6.790;2023-03-14T12:01:05;7.20;99.90
58413;DHT22;44209;52.952;6.790;2023-03-14T12:03:58;7.10;99.90
58413;DHT22;44209;52.952;6.790;2023-03-14T12:06:33;7.10;99.90
58413;DHT22;44209;52.952;6.790;2023-03-14T12:09:04;7.10;99.90
58413;DHT22;44209;52.952;6.790;2023-03-14T12:11:44;7.30;99.90
58413;DHT22;44209;52.952;6.790;2023-03-14T12:14:35;7.40;99.90
58413;DHT22;44209;52.952;6.790;2023-03-14T12:17:20;7.40;99.90
58413;DHT22;44209;52.952;6.790;2023-03-14T12:19:46;7.40;95.00
58413;DHT22;44209;52.952;6.790;2023-03-14T12:22:26;7.40;99.90
58413;DHT22;44209;52.952;6.790;2023-03-14T12:24:57;7.40;97.20
58413;DHT22;44209;52.952;6.790;2023-03-14T12:27:44;7.60;99.90
58413;DHT22;44209;52.952;6.790;2023-03-14T12:35:40;7.60;93.30
58413;DHT22;44209;52.952;6.790;2023-03-14T12:38:09;7.50;94.10
58413;DHT22;44209;52.952;6.790;2023-03-14T12:40:39;7.70;95.00
58413;DHT22;44209;52.952;6.790;2023-03-14T12:48:44;7.50;93.30
58413;DHT22;44209;52.952;6.790;2023-03-14T12:51:18;7.40;92.80
58413;DHT22;44209;52.952;6.790;2023-03-14T12:56:28;7.40;90.60
58413;DHT22;44209;52.952;6.790;2023-03-14T13:01:29;7.20;99.90
58413;DHT22;44209;52.952;6.790;2023-03-14T13:03:57;7.10;99.90
58413;DHT22;44209;52.952;6.790;2023-03-14T13:06:50;7.10;99.90
58413;DHT22;44209;52.952;6.790;2023-03-14T13:12:14;7.30;99.90
58413;DHT22;44209;52.952;6.790;2023-03-14T13:14:45;7.50;99.90
58413;DHT22;44209;52.952;6.790;2023-03-14T13:17:25;7.70;95.10
58413;DHT22;44209;52.952;6.790;2023-03-14T13:19:55;7.90;94.50
58413;DHT22;44209;52.952;6.790;2023-03-14T13:22:27;8.00;93.30
58413;DHT22;44209;52.952;6.790;2023-03-14T13:25:03;8.00;93.40
58413;DHT22;44209;52.952;6.790;2023-03-14T13:27:31;8.00;94.30
58413;DHT22;44209;52.952;6.790;2023-03-14T13:29:57;8.00;92.90
58413;DHT22;44209;52.952;6.790;2023-03-14T13:32:27;7.80;97.30
58413;DHT22;44209;52.952;6.790;2023-03-14T13:34:59;7.80;99.90
58413;DHT22;44209;52.952;6.790;2023-03-14T13:37:26;7.70;99.90
58413;DHT22;44209;52.952;6.790;2023-03-14T13:39:55;7.40;99.90
58413;DHT22;44209;52.952;6.790;2023-03-14T13:42:25;7.20;99.90
58413;DHT22;44209;52.952;6.790;2023-03-14T13:44:53;7.00;99.90
58413;DHT22;44209;52.952;6.790;2023-03-14T13:47:21;6.90;99.90
58413;DHT22;44209;52.952;6.790;2023-03-14T13:49:49;6.90;99.90
58413;DHT22;44209;52.952;6.790;2023-03-14T13:52:35;6.80;99.90
58413;DHT22;44209;52.952;6.790;2023-03-14T13:55:02;6.90;99.90
58413;DHT22;44209;52.952;6.790;2023-03-14T13:57:49;6.90;99.90
58413;DHT22;44209;52.952;6.790;2023-03-14T14:00:28;7.10;96.40
58413;DHT22;44209;52.952;6.790;2023-03-14T14:02:59;7.10;84.20
58413;DHT22;44209;52.952;6.790;2023-03-14T14:05:27;7.10;92.90
58413;DHT22;44209;52.952;6.790;2023-03-14T14:07:54;7.20;89.00
58413;DHT22;44209;52.952;6.790;2023-03-14T14:10:20;7.20;85.60
58413;DHT22;44209;52.952;6.790;2023-03-14T14:12:57;7.30;84.20
58413;DHT22;44209;52.952;6.790;2023-03-14T14:15:29;7.40;84.40
58413;DHT22;44209;52.952;6.790;2023-03-14T14:17:58;7.50;86.20
58413;DHT22;44209;52.952;6.790;2023-03-14T14:22:57;7.40;86.10
58413;DHT22;44209;52.952;6.790;2023-03-14T14:25:23;7.40;89.00
58413;DHT22;44209;52.952;6.790;2023-03-14T14:27:49;7.50;83.80
58413;DHT22;44209;52.952;6.790;2023-03-14T14:32:46;7.40;82.90
58413;DHT22;44209;52.952;6.790;2023-03-14T14:35:41;7.60;85.80
58413;DHT22;44209;52.952;6.790;2023-03-14T14:38:16;7.50;80.40
58413;DHT22;44209;52.952;6.790;2023-03-14T14:40:45;7.50;88.20
58413;DHT22;44209;52.952;6.790;2023-03-14T14:43:17;7.40;84.70
58413;DHT22;44209;52.952;6.790;2023-03-14T14:45:45;7.70;83.70
58413;DHT22;44209;52.952;6.790;2023-03-14T14:48:13;7.90;81.60
58413;DHT22;44209;52.952;6.790;2023-03-14T14:50:58;8.00;78.80
58413;DHT22;44209;52.952;6.790;2023-03-14T14:53:35;8.00;77.60
58413;DHT22;44209;52.952;6.790;2023-03-14T14:56:16;7.80;77.30
58413;DHT22;44209;52.952;6.790;2023-03-14T14:58:45;7.60;74.50
58413;DHT22;44209;52.952;6.790;2023-03-14T15:01:18;7.40;78.30
58413;DHT22;44209;52.952;6.790;2023-03-14T15:03:50;7.30;80.60
58413;DHT22;44209;52.952;6.790;2023-03-14T15:06:16;7.20;83.70
58413;DHT22;44209;52.952;6.790;2023-03-14T15:08:45;7.10;86.10
58413;DHT22;44209;52.952;6.790;2023-03-14T15:11:23;7.00;88.30
58413;DHT22;44209;52.952;6.790;2023-03-14T15:13:50;7.00;91.30
58413;DHT22;44209;52.952;6.790;2023-03-14T15:16:19;6.80;94.80
58413;DHT22;44209;52.952;6.790;2023-03-14T15:18:55;6.80;98.30
58413;DHT22;44209;52.952;6.790;2023-03-14T15:21:22;6.70;99.90
58413;DHT22;44209;52.952;6.790;2023-03-14T15:23:49;6.60;99.90
58413;DHT22;44209;52.952;6.790;2023-03-14T15:26:26;6.50;99.90
58413;DHT22;44209;52.952;6.790;2023-03-14T15:28:52;6.50;99.90
58413;DHT22;44209;52.952;6.790;2023-03-14T15:31:20;6.30;99.90
58413;DHT22;44209;52.952;6.790;2023-03-14T15:33:46;6.30;99.90
58413;DHT22;44209;52.952;6.790;2023-03-14T15:36:23;6.30;99.90
58413;DHT22;44209;52.952;6.790;2023-03-14T15:38:50;6.40;99.90
58413;DHT22;44209;52.952;6.790;2023-03-14T15:41:17;6.50;99.90
58413;DHT22;44209;52.952;6.790;2023-03-14T15:43:42;6.70;99.90
58413;DHT22;44209;52.952;6.790;2023-03-14T15:46:09;6.70;99.90
58413;DHT22;44209;52.952;6.790;2023-03-14T15:48:36;6.80;99.90
58413;DHT22;44209;52.952;6.790;2023-03-14T15:51:01;6.70;99.90
58413;DHT22;44209;52.952;6.790;2023-03-14T15:53:27;6.80;99.90
58413;DHT22;44209;52.952;6.790;2023-03-14T15:55:53;6.90;99.90
58413;DHT22;44209;52.952;6.790;2023-03-14T15:58:20;6.90;99.90
58413;DHT22;44209;52.952;6.790;2023-03-14T16:00:46;6.90;99.90
58413;DHT22;44209;52.952;6.790;2023-03-14T16:03:12;6.90;99.90
58413;DHT22;44209;52.952;6.790;2023-03-14T16:05:38;6.90;99.90
58413;DHT22;44209;52.952;6.790;2023-03-14T16:08:05;6.80;99.90
58413;DHT22;44209;52.952;6.790;2023-03-14T16:10:31;6.70;99.90
58413;DHT22;44209;52.952;6.790;2023-03-14T16:12:56;6.60;99.90
58413;DHT22;44209;52.952;6.790;2023-03-14T16:15:22;6.50;99.90
58413;DHT22;44209;52.952;6.790;2023-03-14T16:17:52;6.50;99.90
58413;DHT22;44209;52.952;6.790;2023-03-14T16:20:18;6.40;99.90
58413;DHT22;44209;52.952;6.790;2023-03-14T16:22:46;6.40;99.90
58413;DHT22;44209;52.952;6.790;2023-03-14T16:25:13;6.30;99.90
58413;DHT22;44209;52.952;6.790;2023-03-14T16:27:38;6.20;99.90
58413;DHT22;44209;52.952;6.790;2023-03-14T16:30:05;6.10;99.90
58413;DHT22;44209;52.952;6.790;2023-03-14T16:32:31;6.00;99.90
58413;DHT22;44209;52.952;6.790;2023-03-14T16:34:57;6.00;99.90
58413;DHT22;44209;52.952;6.790;2023-03-14T16:37:23;5.90;99.90
58413;DHT22;44209;52.952;6.790;2023-03-14T16:39:51;5.80;99.90
58413;DHT22;44209;52.952;6.790;2023-03-14T16:42:17;5.70;99.90